<<    April 2011    >>
Datum    Temp.       Tempmin      Tempmax    Taup.       Taup.min      Taup.max    Feuchte    Feuchtemin    Feuchtemax    Druck    Druckmin    Druckmax    Regen    Wind    Benmax  
  01.04.2011  15,2    12,2    05:47    19,3    15:51  10,1    8,8    07:26    13,1    13:43  72,3    58    18:01    82    05:59  1020,7    1018    00:00    1022    08:10  0,0  2,5  13,0  
  02.04.2011  16,8    10,2    07:14    24,1    17:32  7,9    4,2    20:05    10,7    08:54  60,5    31    17:35    94    06:34  1015,3    1010    17:05    1021    00:00  0,0  2,8  20,9  
  03.04.2011  13,6    10,5    23:59    17,9    12:09  9,3    6,6    00:01    11,4    16:24  75,9    54    00:00    93    22:37  1013,0    1011    00:00    1016    23:59  5,5  1,6  13,7  
  04.04.2011  11,7    8,9    04:16    15,5    16:32  6,0    0,4    23:59    9,4    00:00  70,9    45    18:00    95    04:41  1019,9    1015    01:55    1024    21:26  1,2  2,8  14,0  
  05.04.2011  10,6    4,7    06:45    16,1    16:01  2,1    -0,9    05:03    7,4    23:59  57,3    37    13:19    83    23:16  1025,5    1023    15:27    1027    21:01  0,0  2,0  15,1  
  06.04.2011  15,8    10,3    00:00    21,7    13:56  9,2    7,4    00:00    12,7    11:23  67,3    44    14:12    84    05:27  1026,5    1024    22:59    1028    09:12  0,0  2,2  15,1  
  07.04.2011  16,3    10,6    06:53    22,0    14:07  8,3    4,0    15:16    14,1    08:48  62,5    33    14:14    94    08:28  1024,3    1023    02:42    1027    21:42  0,9  2,7  13,7  
  08.04.2011  13,6    6,8    06:58    19,5    13:54  5,1    2,7    23:33    7,6    08:45  58,5    38    13:21    85    07:28  1024,8    1021    18:27    1027    00:42  0,0  2,8  16,9  
  09.04.2011  13,0    8,2    04:04    18,0    14:00  2,8    0,0    20:27    5,0    08:15  52,0    34    15:45    76    05:58  1024,9    1023    16:57    1027    08:13  0,0  2,8  13,7  
  10.04.2011  13,4    5,1    06:41    20,9    14:08  2,5    0,7    00:17    5,2    08:45  50,7    30    13:30    77    06:58  1024,1    1022    17:56    1026    07:27  0,0  1,0  9,7  
  11.04.2011  16,0    8,4    05:05    24,1    13:50  4,9    2,8    22:31    7,4    12:19  50,7    31    15:07    76    06:00  1020,0    1015    18:57    1024    00:11  0,0  2,0  17,3  
  12.04.2011  10,9    6,3    23:52    15,7    00:26  2,9    -3,1    19:12    8,7    02:31  59,2    38    17:38    83    04:35  1022,1    1017    00:41    1027    21:11  1,8  6,5  27,4  
  13.04.2011  9,7    4,1    04:18    15,9    13:45  -0,2    -3,0    20:34    3,5    10:02  52,6    34    17:38    77    06:01  1023,3    1021    17:27    1027    00:00  0,0  3,9  19,4  
  14.04.2011  11,1    7,1    06:28    16,6    13:39  0,4    -2,7    20:41    3,3    08:07  49,0    35    13:56    71    07:22  1019,8    1019    02:41    1022    00:00  0,0  1,1  12,6  
  15.04.2011  10,8    2,5    06:42    18,2    14:00  -0,2    -2,2    23:28    3,6    08:37  49,7    31    12:53    79    07:24  1020,7    1019    00:41    1023    08:25  0,0  1,2  9,7  
  16.04.2011  12,4    5,3    06:50    17,5    12:40  -1,2    -2,9    20:33    2,6    10:32  39,9    29    17:51    60    07:34  1022,9    1021    03:10    1025    11:10  0,0  0,9  9,0  
  17.04.2011  13,9    8,9    06:46    20,0    13:05  0,1    -3,0    20:23    4,4    08:58  41,0    26    13:01    64    07:42  1024,4    1023    06:10    1027    11:10  0,0  0,9  11,9  
  18.04.2011  13,8    4,0    06:24    21,4    13:36  0,2    -1,4    21:23    4,3    08:27  42,7    26    14:40    72    08:16  1020,6    1016    18:27    1025    00:00  0,0  1,3  19,1  
  19.04.2011  17,1    10,4    06:20    24,2    13:33  1,0    -1,2    01:29    4,4    11:54  35,0    24    16:58    48    23:59  1016,2    1013    18:40    1019    09:55  0,0  1,4  16,6  
  20.04.2011  16,9    7,9    06:32    25,3    13:56  2,3    -0,9    20:56    5,5    12:22  40,7    22    18:18    67    06:40  1015,8    1013    17:39    1018    07:24  0,0  1,1  12,6  
  21.04.2011  18,7    11,0    04:02    26,8    14:33  3,7    1,6    20:15    7,0    12:43  39,1    23    13:49    58    03:57  1014,6    1011    19:09    1017    05:54  0,0  1,1  11,9  
  22.04.2011  19,7    11,5    06:41    28,2    14:30  4,6    1,4    20:20    7,8    12:59  40,2    22    14:30    65    07:04  1010,5    1007    17:39    1013    00:00  0,0  1,0  14,0  
  23.04.2011  19,8    14,0    02:06    27,8    14:51  6,2    2,9    21:29    9,6    12:09  43,2    24    14:23    65    07:39  1010,3    1009    00:24    1013    22:39  0,0  1,7  14,0  
  24.04.2011  18,2    9,5    06:48    27,2    16:51  5,4    1,5    23:24    8,5    09:04  46,8    26    18:59    77    07:45  1015,0    1012    00:00    1019    22:53  0,0  1,5  16,9  
  25.04.2011  17,7    9,3    06:30    25,4    15:01  2,3    -0,3    21:14    5,4    08:50  38,6    21    16:13    68    07:55  1019,4    1017    16:23    1021    23:59  0,0  2,1  17,6  
  26.04.2011  16,3    8,4    06:41    22,9    14:47  3,0    0,1    00:00    6,1    11:03  43,1    26    15:24    68    07:00  1019,5    1017    18:38    1022    07:53  0,0  2,9  19,8  
  27.04.2011  11,5    10,0    08:13    16,6    00:00  7,0    1,5    01:37    10,9    17:43  76,9    39    00:00    96    14:14  1018,6    1016    23:38    1020    07:38  4,9  2,7  15,5  
  28.04.2011  14,1    10,7    00:00    19,7    16:32  10,1    7,4    16:34    12,4    11:27  79,3    45    16:34    98    06:42  1013,9    1011    17:07    1016    00:00  0,9  1,3  12,2  
  29.04.2011  16,2    9,7    02:59    25,8    15:09  7,3    2,5    15:39    11,8    09:17  61,0    23    15:12    93    06:56  1010,5    1007    16:52    1013    04:07  0,0  1,8  19,4  
  30.04.2011  17,7    9,9    06:34    24,9    14:59  4,6    1,1    23:53    8,0    08:14  44,6    25    14:54    74    06:45  1008,8    1006    16:37    1011    00:00  0,0  3,0  21,2  
 
  Gesamt  14,7  2,5            28,2            4,3  -3,1            14,1            53,4  21            98            1018,9  1006            1028            15,1  2,1  27,4  
 
  Mittelwert  14,7  8,5            21,3            4,3  1,2            7,7            53,4  32,5            77,4            1018,9  1016,0            1021,6            0,5  2,1  15,5  
  Minimum  9,7  2,5            15,5            -1,2  -3,1            2,6            35,0  21,0            48,0            1008,8  1006,0            1011,0            0,0  0,9  9,0  
  Maximum  19,8  14,0            28,2            10,1  8,8            14,1            79,3  58,0            98,0            1026,5  1024,0            1028,0            5,5  6,5  27,4  

  Heie Tage    Tmax >=30C     0  
  Sommertage    Tmax >=25C     7  
  Warme Tage    Tmax >=20C     17  
  Kalte Tage    Tmax  <10C     0  
  Frosttage    Tmin  <0C     0  
  Eistage    Tmax  <0C     0  
  Regentage > 0 mm    6  
  Regentage > 2 mm    2  
  Regentage > 10 mm    0  
  Regentage > 20 mm    0